createdAt,value
2019-04-29T00:00:00.471Z,91.02
2019-04-29T00:02:36.496Z,90.87
2019-04-29T00:05:06.285Z,90.98
2019-04-29T00:07:34.989Z,91.17
2019-04-29T00:10:05.048Z,91.49
2019-04-29T00:12:34.348Z,91.85
2019-04-29T00:15:14.503Z,92.61
2019-04-29T00:17:53.226Z,92.35
2019-04-29T00:20:31.538Z,92.55
2019-04-29T00:23:01.147Z,92.48
2019-04-29T00:25:30.447Z,92.73
2019-04-29T00:27:59.435Z,92.68
2019-04-29T00:30:28.323Z,92.88
2019-04-29T00:32:57.224Z,92.74
2019-04-29T00:35:26.790Z,92.76
2019-04-29T00:38:14.811Z,92.83
2019-04-29T00:41:02.813Z,92.92
2019-04-29T00:43:42.488Z,93.34
2019-04-29T00:46:12.187Z,93.35
2019-04-29T00:48:41.138Z,93.49
2019-04-29T00:51:10.167Z,93.62
2019-04-29T00:53:39.963Z,93.74
2019-04-29T00:56:14.283Z,93.81
2019-04-29T00:58:43.172Z,94.04
2019-04-29T01:01:15.387Z,94.09
2019-04-29T01:03:44.020Z,94.10
2019-04-29T01:06:12.730Z,93.95
2019-04-29T01:08:41.707Z,93.92
2019-04-29T01:11:10.323Z,93.72
2019-04-29T01:13:39.387Z,93.81
2019-04-29T01:16:08.383Z,93.87
2019-04-29T01:18:37.581Z,93.82
2019-04-29T01:21:06.575Z,93.78
2019-04-29T01:23:35.202Z,93.97
2019-04-29T01:26:16.131Z,93.97
2019-04-29T01:28:49.604Z,94.04
2019-04-29T01:31:27.025Z,94.12
2019-04-29T01:34:00.368Z,94.18
2019-04-29T01:36:38.223Z,94.13
2019-04-29T01:39:09.750Z,94.21
2019-04-29T01:41:51.041Z,94.55
2019-04-29T01:44:19.765Z,94.60
2019-04-29T01:46:48.636Z,94.83
2019-04-29T01:49:17.295Z,95.39
2019-04-29T01:51:45.926Z,95.62
2019-04-29T01:54:15.516Z,95.72
2019-04-29T01:56:45.118Z,95.62
2019-04-29T01:59:13.746Z,96.23
2019-04-29T02:01:43.008Z,96.21
2019-04-29T02:04:11.630Z,96.42
2019-04-29T02:06:40.600Z,96.80
2019-04-29T02:09:13.453Z,97.24
2019-04-29T02:11:42.121Z,97.29
2019-04-29T02:14:11.191Z,97.53
2019-04-29T02:16:39.764Z,97.54
2019-04-29T02:19:08.430Z,97.63
2019-04-29T02:21:37.311Z,97.68
2019-04-29T02:24:14.805Z,97.64
2019-04-29T02:26:43.441Z,97.86
2019-04-29T02:29:12.385Z,97.98
2019-04-29T02:31:43.029Z,98.17
2019-04-29T02:34:12.007Z,98.41
2019-04-29T02:36:41.002Z,98.37
2019-04-29T02:39:28.941Z,98.62
2019-04-29T02:42:16.060Z,98.63
2019-04-29T02:44:44.671Z,98.53
2019-04-29T02:47:13.339Z,98.48
2019-04-29T02:49:42.411Z,98.63
2019-04-29T02:52:11.037Z,98.50
2019-04-29T02:54:39.718Z,98.63
2019-04-29T02:57:27.747Z,98.73
2019-04-29T03:00:01.265Z,98.83
2019-04-29T03:02:44.876Z,98.91
2019-04-29T03:05:39.795Z,99.02
2019-04-29T03:08:06.487Z,99.26
2019-04-29T03:10:35.111Z,99.26
2019-04-29T03:13:04.096Z,99.32
2019-04-29T03:15:34.991Z,99.53
2019-04-29T03:18:04.027Z,99.69
2019-04-29T03:20:52.120Z,99.69
2019-04-29T03:23:22.192Z,99.70
2019-04-29T03:25:50.886Z,99.88
2019-04-29T03:28:19.600Z,100.00
2019-04-29T03:30:48.964Z,100.00
2019-04-29T03:33:17.611Z,100.00
2019-04-29T03:35:46.274Z,100.00
2019-04-29T03:38:15.534Z,100.00
2019-04-29T03:40:44.533Z,99.88
2019-04-29T03:43:13.501Z,99.91
2019-04-29T03:45:42.721Z,99.87
2019-04-29T03:48:11.736Z,99.86
2019-04-29T03:50:40.707Z,99.88
2019-04-29T03:53:09.706Z,99.94
2019-04-29T03:55:40.492Z,100.00
2019-04-29T03:58:08.733Z,100.00
2019-04-29T04:00:37.745Z,100.00
2019-04-29T04:03:16.275Z,100.00
2019-04-29T04:06:07.335Z,99.95
2019-04-29T04:08:39.715Z,99.92
2019-04-29T04:11:08.705Z,100.00
2019-04-29T04:13:37.716Z,100.00
2019-04-29T04:16:08.338Z,100.00
2019-04-29T04:18:37.354Z,100.00
2019-04-29T04:21:06.416Z,99.92
2019-04-29T04:23:35.447Z,99.83
2019-04-29T04:26:04.077Z,99.43
2019-04-29T04:28:32.990Z,99.06
2019-04-29T04:31:06.254Z,98.87
2019-04-29T04:33:32.714Z,98.66
2019-04-29T04:36:01.497Z,99.04
2019-04-29T04:38:30.483Z,98.82
2019-04-29T04:41:03.373Z,98.91
2019-04-29T04:43:32.379Z,98.95
2019-04-29T04:46:01.114Z,98.81
2019-04-29T04:48:30.363Z,99.14
2019-04-29T04:50:59.362Z,99.22
2019-04-29T04:53:28.087Z,99.40
2019-04-29T04:55:59.480Z,99.31
2019-04-29T04:58:28.387Z,98.97
2019-04-29T05:00:57.380Z,98.75
2019-04-29T05:03:27.653Z,98.51
2019-04-29T05:05:56.494Z,98.49
2019-04-29T05:08:25.171Z,98.54
2019-04-29T05:10:53.807Z,98.67
2019-04-29T05:13:28.377Z,98.49
2019-04-29T05:15:53.394Z,97.83
2019-04-29T05:18:22.287Z,97.80
2019-04-29T05:20:51.279Z,97.36
2019-04-29T05:23:20.267Z,97.25
2019-04-29T05:25:49.157Z,97.02
2019-04-29T05:28:17.796Z,96.43
2019-04-29T05:30:46.738Z,96.09
2019-04-29T05:33:15.718Z,95.35
2019-04-29T05:36:03.741Z,94.98
2019-04-29T05:38:42.105Z,95.01
2019-04-29T05:41:11.483Z,94.61
2019-04-29T05:43:46.405Z,94.46
2019-04-29T05:46:27.813Z,93.97
2019-04-29T05:48:56.803Z,94.59
2019-04-29T05:51:43.783Z,94.78
2019-04-29T05:54:13.445Z,94.05
2019-04-29T05:56:42.147Z,94.26
2019-04-29T05:59:12.900Z,94.33
2019-04-29T06:01:42.795Z,94.39
2019-04-29T06:04:16.250Z,94.11
2019-04-29T06:06:42.455Z,94.02
2019-04-29T06:09:11.509Z,94.51
2019-04-29T06:11:41.810Z,92.44
2019-04-29T06:14:10.699Z,92.70
2019-04-29T06:16:39.322Z,91.12
2019-04-29T06:19:08.296Z,91.52
2019-04-29T06:21:36.929Z,91.28
2019-04-29T06:24:06.467Z,92.36
2019-04-29T06:26:35.647Z,91.54
2019-04-29T06:29:06.087Z,89.89
2019-04-29T06:31:35.289Z,88.67
2019-04-29T06:34:05.333Z,87.18
2019-04-29T06:36:34.711Z,86.00
2019-04-29T06:39:06.166Z,86.13
2019-04-29T06:41:34.797Z,85.67
2019-04-29T06:44:06.677Z,85.05
2019-04-29T06:46:34.576Z,84.13
2019-04-29T06:49:10.559Z,85.24
2019-04-29T06:51:34.209Z,83.68
2019-04-29T06:54:02.881Z,83.60
2019-04-29T06:56:31.784Z,82.65
2019-04-29T06:59:00.785Z,83.00
2019-04-29T07:01:33.108Z,82.05
2019-04-29T07:04:01.408Z,82.55
2019-04-29T07:06:30.120Z,80.98
2019-04-29T07:08:59.104Z,80.97
2019-04-29T07:11:31.892Z,81.11
2019-04-29T07:13:59.333Z,81.12
2019-04-29T07:16:31.942Z,79.81
2019-04-29T07:18:59.258Z,79.12
2019-04-29T07:21:28.167Z,77.73
2019-04-29T07:23:57.063Z,78.40
2019-04-29T07:26:25.958Z,76.98
2019-04-29T07:28:55.627Z,76.14
2019-04-29T07:31:28.146Z,74.62
2019-04-29T07:33:57.906Z,76.01
2019-04-29T07:36:26.329Z,75.51
2019-04-29T07:38:56.609Z,75.04
2019-04-29T07:41:25.851Z,75.66
2019-04-29T07:43:54.463Z,75.50
2019-04-29T07:46:56.066Z,74.42
2019-04-29T07:49:17.318Z,74.64
2019-04-29T07:51:46.511Z,74.15
2019-04-29T07:54:16.374Z,73.00
2019-04-29T07:56:45.958Z,72.67
2019-04-29T07:59:14.655Z,71.70
2019-04-29T08:01:43.631Z,70.46
2019-04-29T08:04:12.313Z,71.62
2019-04-29T08:06:43.047Z,70.57
2019-04-29T08:09:12.016Z,69.52
2019-04-29T08:11:41.445Z,69.20
2019-04-29T08:14:10.053Z,68.59
2019-04-29T08:16:38.665Z,68.15
2019-04-29T08:19:07.896Z,67.87
2019-04-29T08:21:36.887Z,67.80
2019-04-29T08:24:05.646Z,68.85
2019-04-29T08:26:38.167Z,67.77
2019-04-29T08:29:05.413Z,67.43
2019-04-29T08:31:34.313Z,66.79
2019-04-29T08:34:03.297Z,66.83
2019-04-29T08:36:32.553Z,65.79
2019-04-29T08:39:08.370Z,64.94
2019-04-29T08:41:32.115Z,65.19
2019-04-29T08:44:18.983Z,65.00
2019-04-29T08:47:12.848Z,65.10
2019-04-29T08:49:41.797Z,65.31
2019-04-29T08:52:10.435Z,65.46
2019-04-29T08:54:39.374Z,64.82
2019-04-29T08:57:08.262Z,65.04
2019-04-29T08:59:37.367Z,63.00
2019-04-29T09:02:10.198Z,62.54
2019-04-29T09:04:37.003Z,62.94
2019-04-29T09:07:12.492Z,62.02
2019-04-29T09:09:36.608Z,62.23
2019-04-29T09:12:05.305Z,62.04
2019-04-29T09:14:33.945Z,62.12
2019-04-29T09:17:06.119Z,61.83
2019-04-29T09:19:33.207Z,61.97
2019-04-29T09:22:04.225Z,61.29
2019-04-29T09:24:33.153Z,60.61
2019-04-29T09:27:09.649Z,60.07
2019-04-29T09:29:39.530Z,60.55
2019-04-29T09:32:08.231Z,60.52
2019-04-29T09:34:36.927Z,61.73
2019-04-29T09:37:05.639Z,61.81
2019-04-29T09:39:43.261Z,60.95
2019-04-29T09:42:32.450Z,60.88
2019-04-29T09:45:24.156Z,59.62
2019-04-29T09:47:50.816Z,58.56
2019-04-29T09:50:19.527Z,58.72
2019-04-29T09:52:48.131Z,58.29
2019-04-29T09:55:18.783Z,57.75
2019-04-29T09:57:48.011Z,57.68
2019-04-29T10:00:51.193Z,55.45
2019-04-29T10:03:31.537Z,55.96
2019-04-29T10:06:08.357Z,56.09
2019-04-29T10:08:36.999Z,54.44
2019-04-29T10:11:06.795Z,54.61
2019-04-29T10:13:35.450Z,54.30
2019-04-29T10:16:14.919Z,54.38
2019-04-29T10:18:52.156Z,53.22
2019-04-29T10:21:23.004Z,52.41
2019-04-29T10:23:51.768Z,53.63
2019-04-29T10:26:20.781Z,52.13
2019-04-29T10:28:54.947Z,53.29
2019-04-29T10:31:23.987Z,52.00
2019-04-29T10:33:55.119Z,53.55
2019-04-29T10:36:26.085Z,53.47
2019-04-29T10:38:55.499Z,51.52
2019-04-29T10:41:32.045Z,50.43
2019-04-29T10:44:16.669Z,49.88
2019-04-29T10:47:04.184Z,50.84
2019-04-29T10:49:39.358Z,49.21
2019-04-29T10:52:08.057Z,51.98
2019-04-29T10:54:36.693Z,50.38
2019-04-29T10:57:05.738Z,49.26
2019-04-29T10:59:40.628Z,50.96
2019-04-29T11:02:35.090Z,50.95
2019-04-29T11:05:36.055Z,49.85
2019-04-29T11:08:33.580Z,50.86
2019-04-29T11:11:02.445Z,48.60
2019-04-29T11:13:31.047Z,49.28
2019-04-29T11:16:00.035Z,49.38
2019-04-29T11:18:29.333Z,49.01
2019-04-29T11:20:57.968Z,48.94
2019-04-29T11:23:50.599Z,48.85
2019-04-29T11:26:36.926Z,48.82
2019-04-29T11:29:09.203Z,49.96
2019-04-29T11:31:38.131Z,51.88
2019-04-29T11:34:23.102Z,49.61
2019-04-29T11:36:51.992Z,48.79
2019-04-29T11:39:20.883Z,48.36
2019-04-29T11:41:50.086Z,45.88
2019-04-29T11:44:21.837Z,48.04
2019-04-29T11:46:50.668Z,48.13
2019-04-29T11:49:22.658Z,49.47
2019-04-29T11:52:08.696Z,49.53
2019-04-29T11:54:22.739Z,48.70
2019-04-29T11:56:51.724Z,47.66
2019-04-29T11:59:37.971Z,47.42
2019-04-29T12:02:44.666Z,47.67
2019-04-29T12:05:08.763Z,46.67
2019-04-29T12:07:35.726Z,49.67
2019-04-29T12:10:06.592Z,47.87
2019-04-29T12:12:35.596Z,47.26
2019-04-29T12:15:20.797Z,46.50
2019-04-29T12:18:07.690Z,45.58
2019-04-29T12:20:50.118Z,47.29
2019-04-29T12:23:19.149Z,46.27
2019-04-29T12:25:47.773Z,46.74
2019-04-29T12:28:19.143Z,48.56
2019-04-29T12:30:48.806Z,46.82
2019-04-29T12:33:25.794Z,45.71
2019-04-29T12:36:03.404Z,47.58
2019-04-29T12:38:51.580Z,46.57
2019-04-29T12:41:54.380Z,46.72
2019-04-29T12:44:51.448Z,47.34
2019-04-29T12:47:26.677Z,47.19
2019-04-29T12:49:54.970Z,47.55
2019-04-29T12:52:24.476Z,47.10
2019-04-29T12:54:53.467Z,46.29
2019-04-29T12:57:23.459Z,44.39
2019-04-29T12:59:54.664Z,45.01
2019-04-29T13:02:45.882Z,44.57
2019-04-29T13:05:23.175Z,45.63
2019-04-29T13:08:03.801Z,45.86
2019-04-29T13:10:51.512Z,46.21
2019-04-29T13:13:21.991Z,42.44
2019-04-29T13:16:22.225Z,41.54
2019-04-29T13:19:14.473Z,41.98
2019-04-29T13:21:40.549Z,40.77
2019-04-29T13:24:22.062Z,41.98
2019-04-29T13:26:42.593Z,40.44
2019-04-29T13:29:09.914Z,40.75
2019-04-29T13:31:39.360Z,42.73
2019-04-29T13:34:23.707Z,43.33
2019-04-29T13:36:41.378Z,43.38
2019-04-29T13:39:10.390Z,43.02
2019-04-29T13:41:56.120Z,43.04
2019-04-29T13:44:09.934Z,43.55
2019-04-29T13:46:56.597Z,44.48
2019-04-29T13:49:32.870Z,45.36
2019-04-29T13:52:02.269Z,44.08
2019-04-29T13:54:30.868Z,41.96
2019-04-29T13:57:07.710Z,43.41
2019-04-29T13:59:42.023Z,44.39
2019-04-29T14:02:33.442Z,43.12
2019-04-29T14:05:03.423Z,43.77
2019-04-29T14:07:32.378Z,45.05
2019-04-29T14:10:01.280Z,44.84
2019-04-29T14:15:00.688Z,44.59
2019-04-29T14:17:31.775Z,45.64
2019-04-29T14:20:00.424Z,45.34
2019-04-29T14:22:29.500Z,45.98
2019-04-29T14:24:59.072Z,46.43
2019-04-29T14:27:27.725Z,47.16
2019-04-29T14:29:56.697Z,47.01
2019-04-29T14:32:36.087Z,45.75
2019-04-29T14:35:07.122Z,49.11
2019-04-29T14:37:34.915Z,47.79
2019-04-29T14:40:07.594Z,46.63
2019-04-29T14:42:57.994Z,48.14
2019-04-29T14:45:44.272Z,47.77
2019-04-29T14:48:22.033Z,48.40
2019-04-29T14:50:54.253Z,49.75
2019-04-29T14:53:24.146Z,46.94
2019-04-29T14:55:52.586Z,47.81
2019-04-29T14:58:21.884Z,48.64
2019-04-29T15:01:16.039Z,46.67
2019-04-29T15:04:18.336Z,49.11
2019-04-29T15:06:43.438Z,49.81
2019-04-29T15:09:17.193Z,49.84
2019-04-29T15:11:54.456Z,50.10
2019-04-29T15:14:48.622Z,51.55
2019-04-29T15:17:31.926Z,49.63
2019-04-29T15:20:12.312Z,49.08
2019-04-29T15:22:41.615Z,49.75
2019-04-29T15:25:11.118Z,50.84
2019-04-29T15:27:40.014Z,52.31
2019-04-29T15:30:09.831Z,50.54
2019-04-29T15:32:38.717Z,49.72
2019-04-29T15:35:07.811Z,50.52
2019-04-29T15:37:36.441Z,50.54
2019-04-29T15:40:06.005Z,49.61
2019-04-29T15:42:37.813Z,51.06
2019-04-29T15:45:06.061Z,50.64
2019-04-29T15:47:34.750Z,50.27
2019-04-29T15:50:18.372Z,50.29
2019-04-29T15:52:35.211Z,52.28
2019-04-29T15:55:04.958Z,50.06
2019-04-29T15:57:33.878Z,50.73
2019-04-29T16:00:20.234Z,52.27
2019-04-29T16:02:35.911Z,51.39
2019-04-29T16:05:23.590Z,52.45
2019-04-29T16:08:02.001Z,52.54
2019-04-29T16:10:45.981Z,53.09
2019-04-29T16:13:14.946Z,53.58
2019-04-29T16:15:43.651Z,51.64
2019-04-29T16:18:14.718Z,50.32
2019-04-29T16:20:43.393Z,51.85
2019-04-29T16:23:12.461Z,50.66
2019-04-29T16:25:46.365Z,49.51
2019-04-29T16:28:11.783Z,50.93
2019-04-29T16:30:40.678Z,51.91
2019-04-29T16:33:14.001Z,50.51
2019-04-29T16:35:40.698Z,49.10
2019-04-29T16:38:11.695Z,49.72
2019-04-29T16:40:44.078Z,50.62
2019-04-29T16:43:27.667Z,50.28
2019-04-29T16:46:00.430Z,50.03
2019-04-29T16:48:29.323Z,49.68
2019-04-29T16:50:58.623Z,49.32
2019-04-29T16:53:28.023Z,46.24
2019-04-29T16:55:56.641Z,46.62
2019-04-29T16:58:25.602Z,45.50
2019-04-29T17:00:54.865Z,41.89
2019-04-29T17:03:24.034Z,41.95
2019-04-29T17:05:52.992Z,40.45
2019-04-29T17:08:23.336Z,40.72
2019-04-29T17:10:58.455Z,40.11
2019-04-29T17:13:27.446Z,40.87
2019-04-29T17:15:56.444Z,40.50
2019-04-29T17:18:25.339Z,40.36
2019-04-29T17:20:53.978Z,42.09
2019-04-29T17:23:24.429Z,41.45
2019-04-29T17:25:53.338Z,42.34
2019-04-29T17:28:29.105Z,41.80
2019-04-29T17:31:12.530Z,42.77
2019-04-29T17:33:59.986Z,41.85
2019-04-29T17:36:28.840Z,43.65
2019-04-29T17:38:57.831Z,43.47
2019-04-29T17:41:26.729Z,41.99
2019-04-29T17:44:14.657Z,42.81
2019-04-29T17:46:54.519Z,43.40
2019-04-29T17:49:31.968Z,43.47
2019-04-29T17:52:02.909Z,42.83
2019-04-29T17:54:36.497Z,43.17
2019-04-29T17:57:27.894Z,45.12
2019-04-29T18:00:05.077Z,46.58
2019-04-29T18:02:57.395Z,44.44
2019-04-29T18:05:34.374Z,45.01
2019-04-29T18:08:22.729Z,42.75
2019-04-29T18:10:55.711Z,41.51
2019-04-29T18:13:26.398Z,41.30
2019-04-29T18:16:01.614Z,41.59
2019-04-29T18:18:53.491Z,41.23
2019-04-29T18:21:43.261Z,41.59
2019-04-29T18:24:15.927Z,42.43
2019-04-29T18:26:52.895Z,42.18
2019-04-29T18:29:21.669Z,42.49
2019-04-29T18:31:50.296Z,42.97
2019-04-29T18:34:18.947Z,43.66
2019-04-29T18:36:47.601Z,43.87
2019-04-29T18:39:24.996Z,43.94
2019-04-29T18:41:52.609Z,44.68
2019-04-29T18:44:21.296Z,44.59
2019-04-29T18:46:53.435Z,45.90
2019-04-29T18:49:20.658Z,45.90
2019-04-29T18:51:49.954Z,46.04
2019-04-29T18:54:18.835Z,46.41
2019-04-29T18:56:47.487Z,46.95
2019-04-29T18:59:20.985Z,46.73
2019-04-29T19:01:46.817Z,47.35
2019-04-29T19:04:33.315Z,47.76
2019-04-29T19:07:02.584Z,48.17
2019-04-29T19:09:35.772Z,48.74
2019-04-29T19:12:05.316Z,49.43
2019-04-29T19:14:35.249Z,49.30
2019-04-29T19:17:05.025Z,49.40
2019-04-29T19:19:39.311Z,49.42
2019-04-29T19:22:09.364Z,50.55
2019-04-29T19:24:38.155Z,50.92
2019-04-29T19:27:09.851Z,50.83
2019-04-29T19:29:38.907Z,51.09
2019-04-29T19:32:07.753Z,51.56
2019-04-29T19:34:43.004Z,51.35
2019-04-29T19:37:07.065Z,50.91
2019-04-29T19:39:36.779Z,50.87
2019-04-29T19:42:05.782Z,51.80
2019-04-29T19:44:36.738Z,51.99
2019-04-29T19:47:06.217Z,53.80
2019-04-29T19:49:35.989Z,52.98
2019-04-29T19:52:05.027Z,53.86
2019-04-29T19:54:34.018Z,54.64
2019-04-29T19:57:06.982Z,55.92
2019-04-29T19:59:35.943Z,54.28
2019-04-29T20:02:09.498Z,54.61
2019-04-29T20:05:08.061Z,54.68
2019-04-29T20:07:41.622Z,55.84
2019-04-29T20:10:09.483Z,57.19
2019-04-29T20:12:37.811Z,58.24
2019-04-29T20:15:08.368Z,59.15
2019-04-29T20:18:00.471Z,60.65
2019-04-29T20:20:50.251Z,62.93
2019-04-29T20:23:25.100Z,64.48
2019-04-29T20:25:49.822Z,65.17
2019-04-29T20:28:21.246Z,66.15
2019-04-29T20:30:50.471Z,66.88
2019-04-29T20:33:19.722Z,67.11
2019-04-29T20:35:49.394Z,66.90
2019-04-29T20:38:19.079Z,67.67
2019-04-29T20:40:48.338Z,67.20
2019-04-29T20:43:20.869Z,67.62
2019-04-29T20:45:48.561Z,66.83
2019-04-29T20:48:19.545Z,65.33
2019-04-29T20:50:52.876Z,66.17
2019-04-29T20:53:36.084Z,66.96
2019-04-29T20:56:10.435Z,68.27
2019-04-29T20:58:33.273Z,69.76
2019-04-29T21:01:06.560Z,69.88
2019-04-29T21:03:33.145Z,70.13
2019-04-29T21:06:04.003Z,69.66
2019-04-29T21:08:32.647Z,68.73
2019-04-29T21:11:05.801Z,69.29
2019-04-29T21:13:56.000Z,69.82
2019-04-29T21:16:33.383Z,69.50
2019-04-29T21:19:08.826Z,71.71
2019-04-29T21:21:41.912Z,71.71
2019-04-29T21:24:14.083Z,72.88
2019-04-29T21:26:44.655Z,72.88
2019-04-29T21:29:10.742Z,74.49
2019-04-29T21:31:40.438Z,74.49
2019-04-29T21:34:09.334Z,72.82
2019-04-29T21:37:10.202Z,72.49
2019-04-29T21:40:01.669Z,74.33
2019-04-29T21:42:36.981Z,74.99
2019-04-29T21:45:08.685Z,76.59
2019-04-29T21:47:42.647Z,75.51
2019-04-29T21:50:07.557Z,75.51
2019-04-29T21:52:36.612Z,75.44
2019-04-29T21:55:05.664Z,75.03
2019-04-29T21:57:34.582Z,74.89
2019-04-29T22:00:05.575Z,74.89
2019-04-29T22:02:35.760Z,74.31
2019-04-29T22:05:09.497Z,74.46
2019-04-29T22:07:39.712Z,75.08
2019-04-29T22:10:06.979Z,74.75
2019-04-29T22:12:35.613Z,74.75
2019-04-29T22:15:05.876Z,76.21
2019-04-29T22:17:36.036Z,76.16
2019-04-29T22:20:09.678Z,76.81
2019-04-29T22:22:38.465Z,78.13
2019-04-29T22:25:09.982Z,78.37
2019-04-29T22:27:40.947Z,77.67
2019-04-29T22:30:16.854Z,78.42
2019-04-29T22:32:41.496Z,79.39
2019-04-29T22:35:10.583Z,78.49
2019-04-29T22:37:39.575Z,79.52
2019-04-29T22:40:08.977Z,80.13
2019-04-29T22:43:08.458Z,80.58
2019-04-29T22:45:33.972Z,81.47
2019-04-29T22:48:14.198Z,82.54
2019-04-29T22:50:33.758Z,82.92
2019-04-29T22:53:07.396Z,83.45
2019-04-29T22:55:37.102Z,83.52
2019-04-29T22:58:08.022Z,83.83
2019-04-29T23:00:36.262Z,84.16
2019-04-29T23:03:05.329Z,82.67
2019-04-29T23:05:35.676Z,82.06
2019-04-29T23:08:05.223Z,81.34
2019-04-29T23:10:35.635Z,81.52
2019-04-29T23:13:06.155Z,81.94
2019-04-29T23:15:35.826Z,81.45
2019-04-29T23:18:05.564Z,80.85
2019-04-29T23:20:52.476Z,82.94
2019-04-29T23:23:33.356Z,81.91
2019-04-29T23:25:59.984Z,81.89
2019-04-29T23:28:28.446Z,81.99
2019-04-29T23:30:57.184Z,81.06
2019-04-29T23:33:26.445Z,81.75
2019-04-29T23:35:56.100Z,81.44
2019-04-29T23:38:25.539Z,81.85
2019-04-29T23:40:56.295Z,82.08
2019-04-29T23:43:28.468Z,82.01
2019-04-29T23:46:00.216Z,81.51
2019-04-29T23:48:38.091Z,80.97
2019-04-29T23:50:58.369Z,82.98
2019-04-29T23:53:27.272Z,82.86
2019-04-29T23:56:00.279Z,85.04
2019-04-29T23:58:55.461Z,84.32
